createdAt,value
2023-02-09T00:00:18.292Z,92.27
2023-02-09T00:01:18.173Z,92.63
2023-02-09T00:02:18.206Z,92.52
2023-02-09T00:03:18.131Z,93.05
2023-02-09T00:04:18.130Z,93.99
2023-02-09T00:05:18.005Z,93.89
2023-02-09T00:06:18.045Z,93.99
2023-02-09T00:07:18.751Z,93.89
2023-02-09T00:08:32.865Z,93.53
2023-02-09T00:09:18.752Z,93.15
2023-02-09T00:10:17.958Z,93.26
2023-02-09T00:11:17.768Z,93.05
2023-02-09T00:12:17.796Z,92.94
2023-02-09T00:13:17.705Z,93.19
2023-02-09T00:14:19.632Z,93.41
2023-02-09T00:15:17.625Z,93.51
2023-02-09T00:16:17.676Z,94.15
2023-02-09T00:17:17.523Z,93.62
2023-02-09T00:18:17.538Z,93.93
2023-02-09T00:19:17.491Z,93.83
2023-02-09T00:20:17.400Z,93.93
2023-02-09T00:21:17.378Z,93.73
2023-02-09T00:22:17.322Z,93.93
2023-02-09T00:23:17.365Z,93.83
2023-02-09T00:24:17.354Z,93.73
2023-02-09T00:25:17.205Z,93.62
2023-02-09T00:26:17.163Z,93.98
2023-02-09T00:27:17.110Z,94.08
2023-02-09T00:28:17.111Z,93.87
2023-02-09T00:29:17.038Z,93.98
2023-02-09T00:30:17.121Z,94.04
2023-02-09T00:31:17.131Z,94.29
2023-02-09T00:32:16.911Z,93.93
2023-02-09T00:33:16.862Z,94.15
2023-02-09T00:34:16.843Z,94.15
2023-02-09T00:35:16.798Z,94.51
2023-02-09T00:36:16.844Z,94.15
2023-02-09T00:37:16.713Z,93.98
2023-02-09T00:38:16.670Z,93.87
2023-02-09T00:39:16.619Z,93.83
2023-02-09T00:40:16.615Z,93.98
2023-02-09T00:41:16.567Z,94.40
2023-02-09T00:42:16.572Z,94.04
2023-02-09T00:43:16.513Z,94.40
2023-02-09T00:44:16.416Z,93.98
2023-02-09T00:45:16.381Z,94.29
2023-02-09T00:46:16.359Z,94.19
2023-02-09T00:47:16.354Z,94.29
2023-02-09T00:48:16.308Z,94.25
2023-02-09T00:49:16.199Z,94.40
2023-02-09T00:50:16.237Z,94.29
2023-02-09T00:51:16.114Z,94.29
2023-02-09T00:52:16.086Z,94.51
2023-02-09T00:53:16.060Z,94.35
2023-02-09T00:54:16.075Z,94.51
2023-02-09T00:55:15.961Z,94.29
2023-02-09T00:56:15.906Z,94.40
2023-02-09T00:57:15.885Z,93.98
2023-02-09T00:58:15.855Z,94.29
2023-02-09T00:59:15.814Z,94.29
2023-02-09T01:00:15.839Z,94.29
2023-02-09T01:01:15.755Z,94.44
2023-02-09T01:02:15.695Z,94.61
2023-02-09T01:03:15.642Z,94.29
2023-02-09T01:04:15.622Z,94.71
2023-02-09T01:05:15.562Z,94.23
2023-02-09T01:06:15.569Z,94.51
2023-02-09T01:07:15.487Z,94.97
2023-02-09T01:08:15.428Z,94.51
2023-02-09T01:09:15.373Z,94.34
2023-02-09T01:10:15.351Z,94.65
2023-02-09T01:11:15.294Z,94.86
2023-02-09T01:12:15.332Z,94.40
2023-02-09T01:13:15.204Z,94.55
2023-02-09T01:14:15.164Z,94.86
2023-02-09T01:15:15.144Z,95.07
2023-02-09T01:16:15.201Z,94.76
2023-02-09T01:17:15.102Z,94.76
2023-02-09T01:18:15.008Z,94.76
2023-02-09T01:19:14.971Z,94.86
2023-02-09T01:20:14.931Z,95.29
2023-02-09T01:21:14.885Z,94.90
2023-02-09T01:22:14.839Z,95.64
2023-02-09T01:23:14.861Z,94.48
2023-02-09T01:24:14.751Z,95.12
2023-02-09T01:25:14.710Z,95.01
2023-02-09T01:26:14.673Z,95.22
2023-02-09T01:27:14.628Z,95.07
2023-02-09T01:28:14.642Z,94.86
2023-02-09T01:29:14.609Z,95.33
2023-02-09T01:30:14.550Z,95.01
2023-02-09T01:31:14.528Z,95.12
2023-02-09T01:32:14.479Z,95.54
2023-02-09T01:33:14.385Z,94.80
2023-02-09T01:34:14.360Z,95.37
2023-02-09T01:35:14.370Z,95.12
2023-02-09T01:36:14.280Z,95.86
2023-02-09T01:37:14.214Z,95.86
2023-02-09T01:38:14.176Z,96.07
2023-02-09T01:39:14.150Z,95.86
2023-02-09T01:40:14.095Z,95.22
2023-02-09T01:41:14.123Z,95.43
2023-02-09T01:42:14.023Z,94.70
2023-02-09T01:43:13.994Z,95.01
2023-02-09T01:44:13.943Z,96.07
2023-02-09T01:45:13.934Z,95.86
2023-02-09T01:46:13.935Z,95.96
2023-02-09T01:47:14.012Z,95.54
2023-02-09T01:48:13.865Z,95.33
2023-02-09T01:49:13.796Z,95.12
2023-02-09T01:50:13.691Z,95.96
2023-02-09T01:51:13.639Z,95.96
2023-02-09T01:52:13.602Z,96.07
2023-02-09T01:53:13.608Z,95.86
2023-02-09T01:54:13.694Z,94.59
2023-02-09T01:55:13.471Z,95.22
2023-02-09T01:56:13.426Z,94.74
2023-02-09T01:57:13.481Z,95.58
2023-02-09T01:58:13.348Z,94.90
2023-02-09T01:59:13.319Z,95.43
2023-02-09T02:00:13.271Z,95.58
2023-02-09T02:01:13.272Z,95.90
2023-02-09T02:02:13.290Z,96.11
2023-02-09T02:03:13.155Z,96.49
2023-02-09T02:04:13.101Z,96.43
2023-02-09T02:05:13.064Z,96.00
2023-02-09T02:06:13.040Z,96.11
2023-02-09T02:07:12.991Z,96.39
2023-02-09T02:08:13.014Z,96.07
2023-02-09T02:09:12.907Z,95.96
2023-02-09T02:10:12.858Z,96.28
2023-02-09T02:11:12.811Z,96.07
2023-02-09T02:12:12.791Z,96.03
2023-02-09T02:13:12.812Z,95.75
2023-02-09T02:14:12.686Z,95.64
2023-02-09T02:15:12.640Z,95.39
2023-02-09T02:16:12.721Z,95.07
2023-02-09T02:17:12.584Z,94.86
2023-02-09T02:18:12.535Z,95.12
2023-02-09T02:19:12.558Z,95.50
2023-02-09T02:20:12.431Z,95.50
2023-02-09T02:21:12.409Z,94.76
2023-02-09T02:22:12.368Z,95.12
2023-02-09T02:23:12.325Z,94.80
2023-02-09T02:24:12.270Z,94.97
2023-02-09T02:25:12.297Z,94.76
2023-02-09T02:26:12.192Z,95.18
2023-02-09T02:27:12.142Z,94.55
2023-02-09T02:28:12.122Z,94.44
2023-02-09T02:29:12.054Z,94.51
2023-02-09T02:30:12.080Z,94.71
2023-02-09T02:31:12.226Z,94.71
2023-02-09T02:32:11.984Z,94.71
2023-02-09T02:33:11.892Z,94.40
2023-02-09T02:34:11.900Z,94.08
2023-02-09T02:35:11.876Z,93.98
2023-02-09T02:36:11.785Z,94.19
2023-02-09T02:37:11.731Z,94.19
2023-02-09T02:38:11.758Z,94.19
2023-02-09T02:39:11.737Z,94.19
2023-02-09T02:40:11.630Z,93.98
2023-02-09T02:41:11.611Z,94.19
2023-02-09T02:42:12.387Z,94.08
2023-02-09T02:43:11.478Z,93.77
2023-02-09T02:44:11.441Z,93.13
2023-02-09T02:45:11.388Z,93.13
2023-02-09T02:46:11.417Z,93.66
2023-02-09T02:47:11.395Z,93.87
2023-02-09T02:48:11.290Z,93.66
2023-02-09T02:49:11.231Z,94.40
2023-02-09T02:50:11.193Z,94.29
2023-02-09T02:51:11.140Z,94.29
2023-02-09T02:52:11.133Z,94.19
2023-02-09T02:53:11.132Z,94.29
2023-02-09T02:54:11.029Z,93.87
2023-02-09T02:55:10.985Z,93.87
2023-02-09T02:56:10.947Z,94.08
2023-02-09T02:57:10.910Z,93.55
2023-02-09T02:58:10.867Z,93.77
2023-02-09T02:59:10.890Z,94.08
2023-02-09T03:00:10.787Z,93.19
2023-02-09T03:01:10.784Z,93.30
2023-02-09T03:02:10.714Z,93.66
2023-02-09T03:03:10.664Z,93.19
2023-02-09T03:04:10.626Z,93.62
2023-02-09T03:05:10.656Z,93.51
2023-02-09T03:06:10.533Z,92.77
2023-02-09T03:07:10.505Z,93.03
2023-02-09T03:08:10.499Z,93.03
2023-02-09T03:09:10.432Z,93.03
2023-02-09T03:10:10.377Z,93.45
2023-02-09T03:11:10.376Z,93.77
2023-02-09T03:12:10.288Z,92.82
2023-02-09T03:13:10.252Z,92.92
2023-02-09T03:14:10.216Z,93.13
2023-02-09T03:15:10.165Z,92.76
2023-02-09T03:16:10.160Z,93.28
2023-02-09T03:17:10.189Z,94.02
2023-02-09T03:18:10.773Z,93.87
2023-02-09T03:19:10.010Z,94.29
2023-02-09T03:20:09.961Z,93.34
2023-02-09T03:21:09.924Z,93.45
2023-02-09T03:22:09.877Z,93.07
2023-02-09T03:23:09.886Z,93.55
2023-02-09T03:24:09.812Z,93.13
2023-02-09T03:25:09.740Z,93.77
2023-02-09T03:26:09.725Z,93.45
2023-02-09T03:27:09.695Z,93.13
2023-02-09T03:28:09.694Z,93.24
2023-02-09T03:29:09.673Z,93.07
2023-02-09T03:30:09.636Z,93.28
2023-02-09T03:31:09.543Z,93.03
2023-02-09T03:32:09.456Z,93.34
2023-02-09T03:33:10.646Z,93.45
2023-02-09T03:34:09.395Z,93.34
2023-02-09T03:35:09.489Z,92.92
2023-02-09T03:36:09.302Z,92.71
2023-02-09T03:37:09.264Z,93.13
2023-02-09T03:38:09.226Z,93.13
2023-02-09T03:39:09.242Z,92.60
2023-02-09T03:40:09.139Z,93.13
2023-02-09T03:41:09.106Z,93.24
2023-02-09T03:42:09.122Z,93.34
2023-02-09T03:43:09.016Z,93.13
2023-02-09T03:44:08.955Z,93.09
2023-02-09T03:45:08.984Z,92.92
2023-02-09T03:46:08.904Z,92.77
2023-02-09T03:47:08.846Z,92.25
2023-02-09T03:48:08.796Z,92.03
2023-02-09T03:49:08.758Z,92.46
2023-02-09T03:50:08.708Z,92.14
2023-02-09T03:51:08.992Z,91.93
2023-02-09T03:52:08.648Z,91.72
2023-02-09T03:53:08.611Z,91.83
2023-02-09T03:54:08.543Z,91.83
2023-02-09T03:55:08.510Z,91.30
2023-02-09T03:56:08.485Z,91.72
2023-02-09T03:57:08.525Z,91.76
2023-02-09T03:58:08.434Z,91.86
2023-02-09T03:59:08.339Z,91.83
2023-02-09T04:00:08.330Z,91.72
2023-02-09T04:01:08.309Z,91.19
2023-02-09T04:02:08.266Z,91.19
2023-02-09T04:03:08.257Z,91.24
2023-02-09T04:04:08.139Z,91.44
2023-02-09T04:05:08.087Z,92.08
2023-02-09T04:06:08.038Z,91.24
2023-02-09T04:07:08.002Z,91.76
2023-02-09T04:08:07.967Z,91.86
2023-02-09T04:09:07.982Z,91.86
2023-02-09T04:10:07.908Z,92.40
2023-02-09T04:11:07.906Z,93.24
2023-02-09T04:12:07.800Z,92.92
2023-02-09T04:13:07.767Z,92.65
2023-02-09T04:14:07.782Z,93.13
2023-02-09T04:15:07.685Z,93.38
2023-02-09T04:16:07.700Z,92.33
2023-02-09T04:17:07.616Z,92.44
2023-02-09T04:18:07.562Z,92.76
2023-02-09T04:19:07.522Z,92.86
2023-02-09T04:20:07.537Z,92.60
2023-02-09T04:21:07.454Z,92.71
2023-02-09T04:22:07.390Z,92.86
2023-02-09T04:23:07.362Z,92.40
2023-02-09T04:24:07.306Z,93.18
2023-02-09T04:25:07.274Z,92.50
2023-02-09T04:26:07.281Z,92.71
2023-02-09T04:27:07.172Z,92.08
2023-02-09T04:28:07.166Z,92.82
2023-02-09T04:29:07.108Z,92.29
2023-02-09T04:30:07.056Z,92.18
2023-02-09T04:31:07.079Z,91.76
2023-02-09T04:32:07.160Z,91.76
2023-02-09T04:33:06.934Z,91.97
2023-02-09T04:34:06.917Z,91.55
2023-02-09T04:35:06.855Z,91.61
2023-02-09T04:36:06.822Z,91.97
2023-02-09T04:37:06.794Z,92.14
2023-02-09T04:38:06.781Z,91.76
2023-02-09T04:39:06.688Z,91.97
2023-02-09T04:40:07.853Z,92.08
2023-02-09T04:41:06.609Z,91.66
2023-02-09T04:42:06.554Z,91.86
2023-02-09T04:43:06.527Z,91.34
2023-02-09T04:44:06.481Z,91.86
2023-02-09T04:45:06.521Z,92.08
2023-02-09T04:46:06.488Z,91.76
2023-02-09T04:47:06.354Z,92.08
2023-02-09T04:48:06.341Z,91.76
2023-02-09T04:49:06.288Z,91.91
2023-02-09T04:50:06.246Z,91.28
2023-02-09T04:51:06.275Z,91.59
2023-02-09T04:52:06.157Z,91.91
2023-02-09T04:53:06.127Z,92.12
2023-02-09T04:54:06.080Z,91.28
2023-02-09T04:55:06.035Z,91.80
2023-02-09T04:56:06.062Z,91.80
2023-02-09T04:57:05.941Z,92.02
2023-02-09T04:58:05.894Z,91.80
2023-02-09T04:59:05.861Z,91.59
2023-02-09T05:00:05.832Z,91.70
2023-02-09T05:01:05.806Z,91.76
2023-02-09T05:02:05.793Z,91.97
2023-02-09T05:03:05.716Z,91.44
2023-02-09T05:04:05.662Z,91.34
2023-02-09T05:05:05.628Z,91.44
2023-02-09T05:06:05.592Z,91.13
2023-02-09T05:07:05.527Z,91.02
2023-02-09T05:08:05.580Z,91.70
2023-02-09T05:09:05.505Z,91.49
2023-02-09T05:10:05.404Z,91.28
2023-02-09T05:11:05.362Z,91.17
2023-02-09T05:12:05.337Z,91.28
2023-02-09T05:13:05.274Z,91.49
2023-02-09T05:14:05.327Z,91.49
2023-02-09T05:15:05.197Z,91.59
2023-02-09T05:16:05.169Z,91.17
2023-02-09T05:17:05.126Z,92.12
2023-02-09T05:18:05.075Z,91.49
2023-02-09T05:19:05.028Z,91.49
2023-02-09T05:20:05.044Z,91.17
2023-02-09T05:21:04.960Z,91.06
2023-02-09T05:22:04.907Z,91.06
2023-02-09T05:23:04.874Z,91.17
2023-02-09T05:24:04.826Z,90.96
2023-02-09T05:25:04.791Z,90.85
2023-02-09T05:26:04.966Z,90.96
2023-02-09T05:27:05.139Z,90.89
2023-02-09T05:28:05.005Z,91.31
2023-02-09T05:29:04.644Z,91.31
2023-02-09T05:30:04.584Z,91.85
2023-02-09T05:31:04.563Z,91.74
2023-02-09T05:32:04.693Z,91.85
2023-02-09T05:33:04.488Z,91.74
2023-02-09T05:34:05.403Z,92.02
2023-02-09T05:35:04.453Z,92.16
2023-02-09T05:36:04.376Z,91.80
2023-02-09T05:37:04.390Z,92.22
2023-02-09T05:38:04.398Z,91.59
2023-02-09T05:39:06.298Z,91.91
2023-02-09T05:40:04.174Z,91.11
2023-02-09T05:41:04.159Z,91.17
2023-02-09T05:42:04.072Z,91.31
2023-02-09T05:43:04.118Z,91.06
2023-02-09T05:44:03.993Z,91.17
2023-02-09T05:45:04.785Z,90.96
2023-02-09T05:46:06.366Z,91.63
2023-02-09T05:47:03.875Z,91.21
2023-02-09T05:48:03.844Z,91.42
2023-02-09T05:49:03.860Z,91.31
2023-02-09T05:50:03.747Z,91.38
2023-02-09T05:51:03.723Z,91.17
2023-02-09T05:52:03.682Z,91.31
2023-02-09T05:53:03.659Z,91.53
2023-02-09T05:54:03.645Z,91.53
2023-02-09T05:55:03.689Z,91.31
2023-02-09T05:56:03.502Z,91.11
2023-02-09T05:57:03.502Z,91.00
2023-02-09T05:58:03.432Z,91.21
2023-02-09T05:59:04.622Z,92.05
2023-02-09T06:00:03.388Z,91.63
2023-02-09T06:01:03.363Z,91.95
2023-02-09T06:02:03.379Z,92.27
2023-02-09T06:03:03.217Z,92.12
2023-02-09T06:04:03.197Z,91.70
2023-02-09T06:05:03.175Z,91.53
2023-02-09T06:06:03.109Z,91.31
2023-02-09T06:07:03.104Z,91.31
2023-02-09T06:08:03.061Z,91.31
2023-02-09T06:09:02.955Z,91.53
2023-02-09T06:10:02.927Z,91.21
2023-02-09T06:11:02.895Z,91.74
2023-02-09T06:12:02.867Z,91.85
2023-02-09T06:13:02.910Z,91.85
2023-02-09T06:14:02.759Z,91.74
2023-02-09T06:15:02.714Z,91.95
2023-02-09T06:16:02.734Z,91.74
2023-02-09T06:17:02.706Z,91.42
2023-02-09T06:18:02.619Z,91.21
2023-02-09T06:19:02.622Z,91.42
2023-02-09T06:20:02.506Z,91.42
2023-02-09T06:21:02.495Z,91.04
2023-02-09T06:22:02.450Z,91.36
2023-02-09T06:23:02.400Z,91.95
2023-02-09T06:24:02.327Z,91.89
2023-02-09T06:25:02.368Z,92.10
2023-02-09T06:26:02.253Z,91.74
2023-02-09T06:27:02.229Z,91.95
2023-02-09T06:28:02.314Z,92.05
2023-02-09T06:29:02.154Z,91.89
2023-02-09T06:30:02.129Z,92.05
2023-02-09T06:31:02.195Z,91.85
2023-02-09T06:32:02.165Z,91.70
2023-02-09T06:33:01.962Z,90.96
2023-02-09T06:34:01.943Z,90.69
2023-02-09T06:35:01.874Z,90.75
2023-02-09T06:36:01.842Z,91.28
2023-02-09T06:37:01.881Z,90.75
2023-02-09T06:38:01.758Z,90.11
2023-02-09T06:39:01.730Z,90.64
2023-02-09T06:40:01.678Z,90.43
2023-02-09T06:41:01.652Z,90.54
2023-02-09T06:42:01.581Z,90.64
2023-02-09T06:43:02.851Z,90.69
2023-02-09T06:44:01.597Z,90.75
2023-02-09T06:45:01.480Z,90.75
2023-02-09T06:46:01.448Z,90.64
2023-02-09T06:47:01.437Z,90.64
2023-02-09T06:48:01.351Z,90.11
2023-02-09T06:49:01.361Z,90.11
2023-02-09T06:50:01.266Z,90.01
2023-02-09T06:51:01.210Z,90.37
2023-02-09T06:52:01.198Z,89.90
2023-02-09T06:53:01.159Z,90.22
2023-02-09T06:54:01.110Z,90.33
2023-02-09T06:55:01.119Z,90.28
2023-02-09T06:56:01.036Z,90.08
2023-02-09T06:57:00.974Z,89.97
2023-02-09T06:58:00.955Z,89.54
2023-02-09T06:59:00.920Z,89.76
2023-02-09T07:00:00.875Z,89.76
2023-02-09T07:01:00.871Z,89.97
2023-02-09T07:02:00.820Z,89.54
2023-02-09T07:03:00.835Z,89.54
2023-02-09T07:04:00.717Z,89.34
2023-02-09T07:05:00.690Z,89.54
2023-02-09T07:06:00.620Z,89.76
2023-02-09T07:07:00.640Z,90.03
2023-02-09T07:08:00.519Z,89.19
2023-02-09T07:09:00.523Z,89.02
2023-02-09T07:10:00.443Z,89.51
2023-02-09T07:11:00.427Z,89.12
2023-02-09T07:12:00.377Z,89.61
2023-02-09T07:13:00.389Z,89.19
2023-02-09T07:14:00.308Z,88.13
2023-02-09T07:15:00.244Z,89.19
2023-02-09T07:16:00.223Z,89.19
2023-02-09T07:17:00.140Z,88.98
2023-02-09T07:18:00.122Z,88.66
2023-02-09T07:19:01.137Z,88.66
2023-02-09T07:20:00.048Z,88.77
2023-02-09T07:21:00.100Z,89.09
2023-02-09T07:21:59.935Z,88.83
2023-02-09T07:22:59.922Z,88.41
2023-02-09T07:23:59.943Z,87.78
2023-02-09T07:24:59.839Z,88.31
2023-02-09T07:25:59.847Z,87.99
2023-02-09T07:26:59.731Z,87.78
2023-02-09T07:27:59.732Z,87.63
2023-02-09T07:28:59.664Z,87.63
2023-02-09T07:30:01.090Z,87.32
2023-02-09T07:30:59.717Z,87.32
2023-02-09T07:31:59.670Z,86.79
2023-02-09T07:32:59.504Z,87.00
2023-02-09T07:33:59.445Z,86.90
2023-02-09T07:34:59.397Z,87.00
2023-02-09T07:35:59.426Z,86.90
2023-02-09T07:36:59.319Z,86.76
2023-02-09T07:37:59.331Z,87.18
2023-02-09T07:38:59.242Z,86.54
2023-02-09T07:39:59.207Z,86.33
2023-02-09T07:40:59.190Z,86.76
2023-02-09T07:41:59.109Z,85.77
2023-02-09T07:42:59.069Z,85.66
2023-02-09T07:43:59.092Z,85.45
2023-02-09T07:44:58.995Z,85.35
2023-02-09T07:45:59.064Z,85.03
2023-02-09T07:46:59.117Z,85.03
2023-02-09T07:47:59.021Z,85.24
2023-02-09T07:49:01.237Z,85.45
2023-02-09T07:49:58.847Z,85.13
2023-02-09T07:50:58.754Z,84.25
2023-02-09T07:51:58.723Z,85.10
2023-02-09T07:52:59.345Z,84.78
2023-02-09T07:53:58.648Z,84.25
2023-02-09T07:54:58.587Z,83.83
2023-02-09T07:55:58.607Z,83.83
2023-02-09T07:56:59.401Z,83.73
2023-02-09T07:57:58.475Z,83.17
2023-02-09T07:58:58.404Z,83.27
2023-02-09T07:59:58.378Z,83.48
2023-02-09T08:00:59.893Z,83.06
2023-02-09T08:01:58.374Z,83.17
2023-02-09T08:02:58.251Z,83.13
2023-02-09T08:03:58.204Z,83.54
2023-02-09T08:04:58.869Z,83.13
2023-02-09T08:05:58.143Z,82.39
2023-02-09T08:06:58.110Z,82.60
2023-02-09T08:07:58.121Z,82.07
2023-02-09T08:08:58.013Z,82.25
2023-02-09T08:09:58.024Z,81.73
2023-02-09T08:10:57.982Z,80.78
2023-02-09T08:11:57.958Z,81.20
2023-02-09T08:12:57.855Z,80.95
2023-02-09T08:13:57.875Z,80.95
2023-02-09T08:15:00.287Z,80.74
2023-02-09T08:15:57.773Z,80.53
2023-02-09T08:16:58.784Z,80.39
2023-02-09T08:17:57.649Z,79.86
2023-02-09T08:18:57.608Z,79.86
2023-02-09T08:19:57.654Z,79.76
2023-02-09T08:20:57.519Z,80.04
2023-02-09T08:21:57.553Z,79.76
2023-02-09T08:22:57.480Z,79.62
2023-02-09T08:23:57.392Z,79.10
2023-02-09T08:24:57.377Z,78.99
2023-02-09T08:25:57.378Z,78.99
2023-02-09T08:26:57.346Z,78.64
2023-02-09T08:27:57.267Z,79.27
2023-02-09T08:28:57.268Z,79.27
2023-02-09T08:29:57.162Z,79.06
2023-02-09T08:30:57.162Z,78.64
2023-02-09T08:31:57.213Z,78.33
2023-02-09T08:32:57.044Z,77.91
2023-02-09T08:33:57.057Z,77.91
2023-02-09T08:34:56.957Z,77.91
2023-02-09T08:35:56.955Z,77.38
2023-02-09T08:36:56.933Z,78.11
2023-02-09T08:37:56.902Z,77.56
2023-02-09T08:38:56.818Z,77.76
2023-02-09T08:39:56.759Z,77.66
2023-02-09T08:40:56.750Z,77.87
2023-02-09T08:41:56.683Z,76.79
2023-02-09T08:42:56.765Z,76.26
2023-02-09T08:43:56.593Z,75.95
2023-02-09T08:44:56.566Z,75.95
2023-02-09T08:45:56.638Z,76.02
2023-02-09T08:46:56.590Z,76.02
2023-02-09T08:47:56.432Z,75.92
2023-02-09T08:48:56.466Z,76.23
2023-02-09T08:49:56.361Z,75.60
2023-02-09T08:50:56.318Z,74.87
2023-02-09T08:51:56.270Z,74.52
2023-02-09T08:52:56.273Z,74.62
2023-02-09T08:53:56.196Z,74.62
2023-02-09T08:54:56.242Z,74.73
2023-02-09T08:55:56.126Z,74.94
2023-02-09T08:56:56.097Z,75.11
2023-02-09T08:57:56.089Z,75.43
2023-02-09T08:58:56.044Z,74.07
2023-02-09T08:59:55.989Z,74.38
2023-02-09T09:00:56.028Z,74.07
2023-02-09T09:01:55.881Z,74.49
2023-02-09T09:02:55.858Z,74.35
2023-02-09T09:03:55.865Z,74.55
2023-02-09T09:04:55.765Z,74.35
2023-02-09T09:05:55.724Z,74.55
2023-02-09T09:06:55.754Z,73.61
2023-02-09T09:07:55.656Z,74.66
2023-02-09T09:08:55.628Z,74.00
2023-02-09T09:09:55.575Z,74.21
2023-02-09T09:10:55.565Z,73.27
2023-02-09T09:11:55.506Z,73.37
2023-02-09T09:12:55.536Z,72.85
2023-02-09T09:13:55.434Z,72.75
2023-02-09T09:14:55.392Z,72.96
2023-02-09T09:15:55.353Z,72.53
2023-02-09T09:16:55.343Z,72.85
2023-02-09T09:17:55.258Z,72.75
2023-02-09T09:18:55.275Z,72.64
2023-02-09T09:19:55.245Z,73.06
2023-02-09T09:20:55.152Z,72.30
2023-02-09T09:21:55.188Z,71.98
2023-02-09T09:22:55.092Z,72.61
2023-02-09T09:23:55.803Z,72.08
2023-02-09T09:24:54.970Z,72.19
2023-02-09T09:25:54.950Z,72.19
2023-02-09T09:26:54.919Z,71.53
2023-02-09T09:27:54.953Z,71.67
2023-02-09T09:28:54.862Z,71.36
2023-02-09T09:29:54.804Z,71.64
2023-02-09T09:30:54.880Z,71.11
2023-02-09T09:31:54.759Z,71.64
2023-02-09T09:32:54.809Z,71.84
2023-02-09T09:33:54.655Z,71.74
2023-02-09T09:34:54.607Z,71.64
2023-02-09T09:35:54.553Z,71.42
2023-02-09T09:36:54.526Z,71.42
2023-02-09T09:37:54.550Z,71.60
2023-02-09T09:38:56.441Z,71.91
2023-02-09T09:39:54.398Z,72.02
2023-02-09T09:40:54.358Z,72.13
2023-02-09T09:41:54.328Z,71.47
2023-02-09T09:42:54.293Z,71.04
2023-02-09T09:43:54.320Z,70.53
2023-02-09T09:44:54.198Z,71.36
2023-02-09T09:45:54.212Z,70.73
2023-02-09T09:46:54.122Z,71.26
2023-02-09T09:47:54.094Z,71.43
2023-02-09T09:48:54.122Z,71.53
2023-02-09T09:49:54.019Z,71.43
2023-02-09T09:50:53.956Z,71.57
2023-02-09T09:51:53.922Z,72.09
2023-02-09T09:52:53.893Z,71.26
2023-02-09T09:53:53.859Z,71.67
2023-02-09T09:54:53.867Z,70.94
2023-02-09T09:55:53.769Z,70.81
2023-02-09T09:56:53.746Z,70.81
2023-02-09T09:57:53.698Z,70.11
2023-02-09T09:58:53.649Z,70.60
2023-02-09T09:59:53.620Z,70.60
2023-02-09T10:00:53.733Z,70.91
2023-02-09T10:01:53.560Z,70.39
2023-02-09T10:02:53.502Z,70.67
2023-02-09T10:03:53.474Z,70.46
2023-02-09T10:04:53.645Z,70.46
2023-02-09T10:05:53.388Z,70.67
2023-02-09T10:06:53.406Z,70.56
2023-02-09T10:07:53.360Z,70.25
2023-02-09T10:08:53.270Z,69.94
2023-02-09T10:09:53.258Z,69.84
2023-02-09T10:10:53.187Z,69.21
2023-02-09T10:11:53.159Z,69.07
2023-02-09T10:12:53.178Z,69.38
2023-02-09T10:13:53.145Z,69.38
2023-02-09T10:14:53.030Z,69.81
2023-02-09T10:15:53.015Z,68.76
2023-02-09T10:16:52.999Z,68.76
2023-02-09T10:17:53.041Z,68.76
2023-02-09T10:18:52.877Z,68.73
2023-02-09T10:19:53.796Z,67.58
2023-02-09T10:20:52.809Z,68.52
2023-02-09T10:21:52.768Z,68.32
2023-02-09T10:22:52.720Z,68.52
2023-02-09T10:23:52.795Z,67.69
2023-02-09T10:24:52.650Z,67.07
2023-02-09T10:25:52.635Z,67.69
2023-02-09T10:26:52.575Z,67.45
2023-02-09T10:27:52.616Z,67.38
2023-02-09T10:28:52.497Z,67.45
2023-02-09T10:29:52.538Z,67.35
2023-02-09T10:30:52.507Z,67.14
2023-02-09T10:31:52.445Z,67.45
2023-02-09T10:32:52.347Z,67.35
2023-02-09T10:33:52.344Z,67.03
2023-02-09T10:34:52.284Z,66.93
2023-02-09T10:35:52.293Z,66.41
2023-02-09T10:36:52.220Z,67.11
2023-02-09T10:37:52.146Z,67.55
2023-02-09T10:38:52.186Z,67.35
2023-02-09T10:39:52.071Z,66.83
2023-02-09T10:40:52.039Z,67.73
2023-02-09T10:41:52.092Z,67.52
2023-02-09T10:42:51.983Z,66.48
2023-02-09T10:43:51.923Z,67.11
2023-02-09T10:44:51.883Z,67.21
2023-02-09T10:45:51.862Z,66.03
2023-02-09T10:46:51.867Z,67.00
2023-02-09T10:47:51.765Z,66.80
2023-02-09T10:48:51.730Z,67.39
2023-02-09T10:49:53.264Z,66.77
2023-02-09T10:50:51.658Z,67.42
2023-02-09T10:51:51.701Z,67.03
2023-02-09T10:52:51.593Z,66.27
2023-02-09T10:53:51.557Z,67.32
2023-02-09T10:54:51.498Z,67.45
2023-02-09T10:55:51.471Z,67.52
2023-02-09T10:56:51.446Z,67.32
2023-02-09T10:57:51.464Z,66.69
2023-02-09T10:58:51.368Z,66.48
2023-02-09T10:59:51.322Z,65.96
2023-02-09T11:00:51.286Z,66.38
2023-02-09T11:01:51.313Z,66.06
2023-02-09T11:02:51.224Z,66.48
2023-02-09T11:03:51.260Z,66.24
2023-02-09T11:04:51.146Z,66.24
2023-02-09T11:05:51.093Z,67.39
2023-02-09T11:06:51.047Z,66.97
2023-02-09T11:07:51.030Z,66.03
2023-02-09T11:08:51.007Z,65.13
2023-02-09T11:09:51.054Z,65.03
2023-02-09T11:10:50.912Z,64.79
2023-02-09T11:11:50.868Z,66.87
2023-02-09T11:12:50.827Z,66.45
2023-02-09T11:13:50.817Z,66.35
2023-02-09T11:14:50.782Z,66.53
2023-02-09T11:15:50.801Z,65.00
2023-02-09T11:16:50.734Z,65.28
2023-02-09T11:17:50.681Z,65.48
2023-02-09T11:18:50.599Z,65.28
2023-02-09T11:19:50.564Z,64.76
2023-02-09T11:20:50.530Z,64.34
2023-02-09T11:21:50.552Z,65.07
2023-02-09T11:22:50.478Z,65.17
2023-02-09T11:23:50.451Z,64.45
2023-02-09T11:24:50.379Z,63.28
2023-02-09T11:25:50.331Z,64.14
2023-02-09T11:26:50.344Z,64.24
2023-02-09T11:27:50.291Z,64.14
2023-02-09T11:28:50.278Z,64.42
2023-02-09T11:29:50.222Z,64.11
2023-02-09T11:30:50.621Z,64.83
2023-02-09T11:31:50.208Z,65.22
2023-02-09T11:32:50.190Z,64.42
2023-02-09T11:33:50.061Z,65.01
2023-02-09T11:34:50.041Z,63.56
2023-02-09T11:35:49.995Z,64.28
2023-02-09T11:36:49.923Z,63.69
2023-02-09T11:37:49.887Z,64.18
2023-02-09T11:38:49.914Z,63.97
2023-02-09T11:39:49.831Z,63.35
2023-02-09T11:40:49.764Z,63.21
2023-02-09T11:41:49.749Z,63.56
2023-02-09T11:42:49.708Z,63.48
2023-02-09T11:43:49.669Z,64.59
2023-02-09T11:44:49.705Z,64.77
2023-02-09T11:45:50.375Z,64.49
2023-02-09T11:46:49.604Z,63.53
2023-02-09T11:47:49.598Z,63.63
2023-02-09T11:48:49.500Z,63.94
2023-02-09T11:49:49.437Z,64.46
2023-02-09T11:50:49.437Z,64.04
2023-02-09T11:51:49.372Z,64.23
2023-02-09T11:52:49.309Z,63.42
2023-02-09T11:53:49.281Z,62.57
2023-02-09T11:54:49.246Z,63.29
2023-02-09T11:55:49.195Z,62.77
2023-02-09T11:56:49.246Z,63.29
2023-02-09T11:57:49.124Z,63.06
2023-02-09T11:58:49.087Z,62.77
2023-02-09T11:59:49.052Z,62.36
2023-02-09T12:00:57.821Z,62.98
2023-02-09T12:01:48.996Z,62.67
2023-02-09T12:02:49.091Z,63.57
2023-02-09T12:03:48.900Z,63.37
2023-02-09T12:04:48.946Z,62.74
2023-02-09T12:05:48.836Z,62.43
2023-02-09T12:06:48.821Z,62.95
2023-02-09T12:07:48.810Z,62.74
2023-02-09T12:08:48.769Z,62.43
2023-02-09T12:09:48.676Z,62.92
2023-02-09T12:10:48.642Z,62.82
2023-02-09T12:11:48.658Z,61.81
2023-02-09T12:12:48.602Z,61.71
2023-02-09T12:13:50.426Z,61.81
2023-02-09T12:14:48.501Z,61.19
2023-02-09T12:15:48.619Z,61.40
2023-02-09T12:16:48.423Z,61.19
2023-02-09T12:17:49.344Z,61.60
2023-02-09T12:18:48.549Z,61.91
2023-02-09T12:19:50.507Z,61.71
2023-02-09T12:20:48.639Z,61.71
2023-02-09T12:21:48.343Z,60.88
2023-02-09T12:22:48.264Z,60.88
2023-02-09T12:23:48.152Z,61.08
2023-02-09T12:24:48.133Z,60.67
2023-02-09T12:25:50.282Z,60.91
2023-02-09T12:26:48.128Z,61.08
2023-02-09T12:27:48.019Z,61.40
2023-02-09T12:28:47.993Z,61.19
2023-02-09T12:29:47.943Z,62.23
2023-02-09T12:30:48.191Z,61.40
2023-02-09T12:31:48.029Z,60.53
2023-02-09T12:32:47.832Z,61.29
2023-02-09T12:33:49.318Z,60.67
2023-02-09T12:34:47.737Z,60.53
2023-02-09T12:35:47.746Z,60.36
2023-02-09T12:36:47.683Z,60.57
2023-02-09T12:37:47.708Z,60.53
2023-02-09T12:38:53.714Z,60.64
2023-02-09T12:39:47.557Z,60.74
2023-02-09T12:40:47.644Z,61.05
2023-02-09T12:41:47.476Z,60.74
2023-02-09T12:42:47.472Z,60.64
2023-02-09T12:43:47.404Z,60.53
2023-02-09T12:44:47.375Z,60.43
2023-02-09T12:45:47.764Z,60.43
2023-02-09T12:46:47.287Z,60.64
2023-02-09T12:47:47.283Z,59.50
2023-02-09T12:48:47.227Z,59.50
2023-02-09T12:49:47.204Z,60.61
2023-02-09T12:50:47.144Z,60.82
2023-02-09T12:51:47.167Z,60.82